Time;durP1;ratioP1;P1;durP2;ratioP2;P2;SDS_P1;SDS_P2;PMS_P1;PMS_P2;Temp;Humidity;BMP_temperature;BMP_pressure;BME280_temperature;BME280_humidity;BME280_pressure;Samples;Min_cycle;Max_cycle;Signal;HPM_P1;HPM_P2
2022/04/27 00:01:41;;;;;;;7.25;1.20;;;;;;;;;;4997845;28;20413;-72
2022/04/27 00:04:09;;;;;;;9.45;1.77;;;;;;;;;;5000647;28;20148;-71
2022/04/27 00:06:36;;;;;;;6.93;1.17;;;;;;;;;;4999040;28;20325;-71
2022/04/27 00:09:04;;;;;;;7.03;1.15;;;;;;;;;;5004039;28;20057;-71
2022/04/27 00:11:31;;;;;;;2.50;1.13;;;;;;;;;;5002083;28;20090;-72
2022/04/27 00:14:00;;;;;;;2.42;0.90;;;;;;;;;;5004084;28;20054;-71
2022/04/27 00:16:29;;;;;;;1.83;0.65;;;;;;;;;;5003971;28;20077;-71
2022/04/27 00:18:56;;;;;;;5.10;1.00;;;;;;;;;;4997369;28;20580;-71
2022/04/27 00:21:23;;;;;;;2.95;0.75;;;;;;;;;;4994328;28;20057;-71
2022/04/27 00:23:50;;;;;;;2.72;0.88;;;;;;;;;;5001564;28;20064;-71
2022/04/27 00:26:18;;;;;;;5.10;1.10;;;;;;;;;;5006087;28;20072;-72
2022/04/27 00:28:47;;;;;;;3.83;1.10;;;;;;;;;;5000991;28;20060;-71
2022/04/27 00:31:14;;;;;;;4.95;1.10;;;;;;;;;;5006184;28;20050;-71
2022/04/27 00:33:45;;;;;;;3.85;1.42;;;;;;;;;;4997619;28;20054;-71
2022/04/27 00:36:12;;;;;;;3.08;1.00;;;;;;;;;;5004504;28;20061;-71
2022/04/27 00:38:39;;;;;;;5.10;1.38;;;;;;;;;;5000929;28;20053;-71
2022/04/27 00:41:06;;;;;;;4.10;1.10;;;;;;;;;;5003216;28;20062;-71
2022/04/27 00:43:38;;;;;;;4.13;1.00;;;;;;;;;;4997219;28;20053;-71
2022/04/27 00:46:05;;;;;;;7.38;1.23;;;;;;;;;;4998733;28;20065;-71
2022/04/27 00:48:32;;;;;;;3.22;1.02;;;;;;;;;;5001906;28;20049;-71
2022/04/27 00:51:03;;;;;;;2.47;0.98;;;;;;;;;;5000179;28;20082;-72
2022/04/27 00:53:30;;;;;;;5.97;1.23;;;;;;;;;;5000805;28;20085;-72
2022/04/27 00:55:58;;;;;;;4.38;1.30;;;;;;;;;;4999194;28;20065;-71
2022/04/27 00:58:26;;;;;;;5.78;1.63;;;;;;;;;;5004414;28;20058;-72
2022/04/27 01:00:53;;;;;;;3.53;1.00;;;;;;;;;;4997959;28;20054;-71
2022/04/27 01:03:21;;;;;;;4.72;1.10;;;;;;;;;;4997425;28;20046;-71
2022/04/27 01:05:49;;;;;;;4.95;1.35;;;;;;;;;;4999162;28;20173;-71
2022/04/27 01:08:17;;;;;;;5.13;1.40;;;;;;;;;;5002735;28;20500;-71
2022/04/27 01:10:45;;;;;;;5.20;1.30;;;;;;;;;;4994324;28;20058;-71
2022/04/27 01:13:13;;;;;;;3.53;1.27;;;;;;;;;;5001838;28;20100;-71
2022/04/27 01:15:41;;;;;;;3.60;1.10;;;;;;;;;;5003233;28;20082;-71
2022/04/27 01:18:09;;;;;;;4.97;1.50;;;;;;;;;;5002427;28;20057;-71
2022/04/27 01:20:38;;;;;;;3.60;1.48;;;;;;;;;;5000966;28;20050;-71
2022/04/27 01:23:07;;;;;;;5.63;1.25;;;;;;;;;;5000030;28;20133;-71
2022/04/27 01:25:48;;;;;;;6.65;1.40;;;;;;;;;;5000926;28;20141;-72
2022/04/27 01:28:16;;;;;;;3.75;1.55;;;;;;;;;;5003936;28;20042;-71
2022/04/27 01:30:44;;;;;;;3.33;1.50;;;;;;;;;;5004424;28;20081;-71
2022/04/27 01:33:11;;;;;;;4.47;1.13;;;;;;;;;;5002079;28;20453;-71
2022/04/27 01:35:41;;;;;;;3.88;1.05;;;;;;;;;;5002272;28;20136;-71
2022/04/27 01:38:08;;;;;;;4.97;1.27;;;;;;;;;;5001761;28;20125;-71
2022/04/27 01:40:35;;;;;;;3.67;0.95;;;;;;;;;;5002378;28;20053;-71
2022/04/27 01:43:03;;;;;;;3.80;1.05;;;;;;;;;;5004438;28;20053;-72
2022/04/27 01:45:30;;;;;;;4.22;1.30;;;;;;;;;;5001392;28;20054;-71
2022/04/27 01:47:57;;;;;;;4.13;1.20;;;;;;;;;;5008430;28;20053;-71
2022/04/27 01:50:25;;;;;;;3.28;1.33;;;;;;;;;;5001786;28;20046;-71
2022/04/27 01:55:38;;;;;;;2.08;1.05;;;;;;;;;;5005517;28;20061;-71
2022/04/27 01:58:05;;;;;;;2.67;1.05;;;;;;;;;;5002832;28;20053;-71
2022/04/27 02:00:33;;;;;;;5.05;1.20;;;;;;;;;;5004376;28;20061;-72
2022/04/27 02:03:00;;;;;;;3.00;1.10;;;;;;;;;;4995762;28;20508;-71
2022/04/27 02:05:28;;;;;;;4.00;1.10;;;;;;;;;;5003367;28;20065;-71
2022/04/27 02:07:56;;;;;;;4.10;1.30;;;;;;;;;;5005883;28;20046;-71
2022/04/27 02:10:24;;;;;;;3.35;1.02;;;;;;;;;;5005139;28;20049;-71
2022/04/27 02:12:51;;;;;;;8.10;1.30;;;;;;;;;;5004730;28;20049;-71
2022/04/27 02:15:18;;;;;;;3.58;1.50;;;;;;;;;;5001271;28;20112;-71
2022/04/27 02:17:45;;;;;;;3.67;1.10;;;;;;;;;;5000431;28;20046;-72
2022/04/27 02:20:13;;;;;;;4.15;1.33;;;;;;;;;;5002686;28;20050;-71
2022/04/27 02:22:40;;;;;;;4.93;1.75;;;;;;;;;;5000104;28;20054;-71
2022/04/27 02:25:09;;;;;;;7.18;1.70;;;;;;;;;;5003700;28;20878;-71
2022/04/27 02:27:36;;;;;;;3.88;1.30;;;;;;;;;;5001041;28;20076;-71
2022/04/27 02:30:05;;;;;;;8.63;1.60;;;;;;;;;;5005282;28;20054;-72
2022/04/27 02:32:32;;;;;;;6.28;1.85;;;;;;;;;;5000208;28;20690;-71
2022/04/27 02:34:59;;;;;;;6.60;1.50;;;;;;;;;;4998313;28;20534;-71
2022/04/27 02:37:27;;;;;;;3.00;1.40;;;;;;;;;;4996651;28;20046;-72
2022/04/27 02:39:54;;;;;;;4.22;1.70;;;;;;;;;;5000160;28;20073;-71
2022/04/27 02:42:22;;;;;;;4.05;1.60;;;;;;;;;;5002737;28;20079;-72
2022/04/27 02:44:49;;;;;;;5.82;1.60;;;;;;;;;;5001132;28;20068;-71
2022/04/27 02:47:18;;;;;;;5.93;1.67;;;;;;;;;;5001736;28;20119;-71
2022/04/27 02:52:30;;;;;;;3.38;1.30;;;;;;;;;;5000991;28;20060;-71
2022/04/27 02:54:57;;;;;;;4.80;1.50;;;;;;;;;;5000787;28;20062;-72
2022/04/27 02:57:26;;;;;;;4.95;1.50;;;;;;;;;;5002072;28;20050;-71
2022/04/27 02:59:53;;;;;;;3.75;1.30;;;;;;;;;;5001739;28;20120;-72
2022/04/27 03:02:20;;;;;;;5.72;1.27;;;;;;;;;;4995949;28;20053;-72
2022/04/27 03:04:47;;;;;;;5.53;1.50;;;;;;;;;;4994034;28;20489;-71
2022/04/27 03:07:14;;;;;;;6.68;1.70;;;;;;;;;;4999270;28;20045;-71
2022/04/27 03:09:42;;;;;;;4.80;1.48;;;;;;;;;;4993998;28;20060;-71
2022/04/27 03:12:09;;;;;;;4.15;1.30;;;;;;;;;;4997089;28;20053;-71
2022/04/27 03:14:38;;;;;;;4.88;1.45;;;;;;;;;;4996044;28;20053;-71
2022/04/27 03:17:05;;;;;;;4.65;1.50;;;;;;;;;;4997507;28;20057;-71
2022/04/27 03:19:32;;;;;;;9.85;2.20;;;;;;;;;;4998739;28;20061;-72
2022/04/27 03:22:00;;;;;;;2.88;1.30;;;;;;;;;;4994473;28;20535;-71
2022/04/27 03:24:27;;;;;;;5.13;1.58;;;;;;;;;;4996145;28;20054;-72
2022/04/27 03:26:54;;;;;;;6.13;1.67;;;;;;;;;;4997265;28;20053;-72
2022/04/27 03:29:21;;;;;;;4.93;2.05;;;;;;;;;;4995297;28;20133;-71
2022/04/27 03:31:50;;;;;;;3.63;1.52;;;;;;;;;;4992412;28;20058;-71
2022/04/27 03:34:17;;;;;;;5.55;1.70;;;;;;;;;;4995442;28;20105;-71
2022/04/27 03:36:44;;;;;;;5.53;2.00;;;;;;;;;;4998939;28;20053;-71
2022/04/27 03:39:11;;;;;;;4.30;1.65;;;;;;;;;;5000221;28;20054;-71
2022/04/27 03:41:38;;;;;;;6.50;2.25;;;;;;;;;;4993340;28;20100;-71
2022/04/27 03:44:06;;;;;;;6.32;2.38;;;;;;;;;;4996562;28;20046;-71
2022/04/27 03:46:33;;;;;;;6.47;2.33;;;;;;;;;;4999403;28;20794;-71
2022/04/27 03:49:01;;;;;;;6.95;2.63;;;;;;;;;;4997144;28;20214;-71
2022/04/27 03:51:29;;;;;;;8.23;2.92;;;;;;;;;;4997123;28;20061;-71
2022/04/27 03:53:56;;;;;;;10.23;2.90;;;;;;;;;;4993932;28;20050;-71
2022/04/27 03:56:23;;;;;;;6.97;2.40;;;;;;;;;;4993337;28;20492;-71
2022/04/27 03:58:50;;;;;;;5.00;2.53;;;;;;;;;;4995810;28;20050;-71
2022/04/27 04:01:17;;;;;;;6.75;2.75;;;;;;;;;;5003509;28;20057;-71
2022/04/27 04:03:45;;;;;;;8.38;2.50;;;;;;;;;;5002629;28;20050;-71
2022/04/27 04:06:13;;;;;;;5.57;2.45;;;;;;;;;;5006137;28;20128;-71
2022/04/27 04:08:40;;;;;;;6.75;2.70;;;;;;;;;;5005543;28;20049;-71
2022/04/27 04:11:08;;;;;;;7.50;2.47;;;;;;;;;;5007557;28;20072;-71
2022/04/27 04:13:35;;;;;;;6.63;2.42;;;;;;;;;;5005594;28;20648;-71
2022/04/27 04:16:02;;;;;;;7.72;2.50;;;;;;;;;;5006069;28;20128;-71
2022/04/27 04:18:29;;;;;;;6.63;2.65;;;;;;;;;;5005409;28;20050;-71
2022/04/27 04:20:56;;;;;;;7.25;2.40;;;;;;;;;;5000977;28;20050;-71
2022/04/27 04:23:25;;;;;;;9.20;3.08;;;;;;;;;;4994592;28;20068;-71
2022/04/27 04:28:37;;;;;;;9.38;2.80;;;;;;;;;;4996538;28;20049;-71
2022/04/27 04:31:05;;;;;;;7.30;2.28;;;;;;;;;;4992497;28;20057;-71
2022/04/27 04:33:32;;;;;;;6.07;2.25;;;;;;;;;;4993795;28;20054;-71
2022/04/27 04:36:00;;;;;;;8.05;3.03;;;;;;;;;;4995413;28;20046;-71
2022/04/27 04:38:29;;;;;;;11.70;2.65;;;;;;;;;;4995893;28;20048;-71
2022/04/27 04:40:56;;;;;;;9.43;2.65;;;;;;;;;;4993755;28;20049;-71
2022/04/27 04:43:23;;;;;;;8.55;2.40;;;;;;;;;;4993167;28;20058;-72
2022/04/27 04:45:51;;;;;;;8.65;2.70;;;;;;;;;;4994124;28;20050;-71
2022/04/27 04:48:18;;;;;;;8.57;2.67;;;;;;;;;;4996198;28;20060;-71
2022/04/27 04:50:45;;;;;;;13.27;2.65;;;;;;;;;;4995657;28;20105;-72
2022/04/27 04:53:12;;;;;;;9.88;2.60;;;;;;;;;;4998487;28;20518;-71
2022/04/27 04:55:41;;;;;;;8.13;2.25;;;;;;;;;;5003386;28;20056;-71
2022/04/27 04:58:09;;;;;;;8.35;2.75;;;;;;;;;;4998872;28;20054;-71
2022/04/27 05:00:37;;;;;;;7.53;2.88;;;;;;;;;;4996722;28;20053;-71
2022/04/27 05:03:05;;;;;;;7.53;2.50;;;;;;;;;;4997850;28;20551;-71
2022/04/27 05:05:34;;;;;;;9.23;2.42;;;;;;;;;;4994880;28;20145;-71
2022/04/27 05:08:02;;;;;;;7.90;2.33;;;;;;;;;;4995533;28;20056;-71
2022/04/27 05:10:29;;;;;;;13.60;2.90;;;;;;;;;;4995829;28;20108;-71
2022/04/27 05:12:57;;;;;;;11.63;2.70;;;;;;;;;;4996974;28;20058;-71
2022/04/27 05:15:25;;;;;;;8.80;3.30;;;;;;;;;;4994222;28;20058;-71
2022/04/27 05:17:52;;;;;;;7.50;3.30;;;;;;;;;;4996361;28;20066;-71
2022/04/27 05:20:19;;;;;;;12.10;3.55;;;;;;;;;;4995039;28;20058;-71
2022/04/27 05:22:46;;;;;;;9.98;3.33;;;;;;;;;;4994848;28;20397;-71
2022/04/27 05:25:13;;;;;;;12.45;3.78;;;;;;;;;;4996905;28;20061;-71
2022/04/27 05:27:41;;;;;;;13.70;3.50;;;;;;;;;;4996371;28;20045;-71
2022/04/27 05:33:03;;;;;;;11.70;3.25;;;;;;;;;;4949838;28;20042;-72
2022/04/27 05:35:30;;;;;;;13.35;3.38;;;;;;;;;;4996987;28;20128;-71
2022/04/27 05:37:57;;;;;;;14.55;3.00;;;;;;;;;;4995059;28;20045;-71
2022/04/27 05:40:25;;;;;;;13.95;3.03;;;;;;;;;;4994125;28;20501;-71
2022/04/27 05:42:53;;;;;;;12.73;2.58;;;;;;;;;;4996895;28;20149;-71
2022/04/27 05:45:21;;;;;;;14.38;2.80;;;;;;;;;;4990100;28;20813;-71
2022/04/27 05:47:49;;;;;;;15.43;2.78;;;;;;;;;;4996715;28;20053;-71
2022/04/27 05:50:16;;;;;;;15.98;3.30;;;;;;;;;;4994015;28;20041;-71
2022/04/27 05:52:48;;;;;;;16.13;2.88;;;;;;;;;;4996196;28;20183;-71
2022/04/27 05:55:15;;;;;;;19.40;3.80;;;;;;;;;;4996489;28;20058;-71
2022/04/27 05:57:42;;;;;;;17.52;3.83;;;;;;;;;;4995625;28;20054;-71
2022/04/27 06:00:10;;;;;;;17.45;3.05;;;;;;;;;;4995108;28;20046;-71
2022/04/27 06:02:39;;;;;;;14.40;3.33;;;;;;;;;;4994684;28;20090;-71
2022/04/27 06:05:07;;;;;;;18.30;2.45;;;;;;;;;;4995219;28;20421;-71
2022/04/27 06:07:35;;;;;;;18.60;3.35;;;;;;;;;;4991564;28;20054;-71
2022/04/27 06:10:03;;;;;;;19.02;2.70;;;;;;;;;;4996944;28;20053;-70
2022/04/27 06:12:35;;;;;;;16.15;2.50;;;;;;;;;;4993181;28;20069;-70
2022/04/27 06:15:03;;;;;;;19.48;2.90;;;;;;;;;;4995689;28;20463;-70
2022/04/27 06:17:30;;;;;;;19.10;3.10;;;;;;;;;;4997075;28;20663;-70
2022/04/27 06:19:59;;;;;;;19.30;2.85;;;;;;;;;;4994940;28;20058;-71
2022/04/27 06:22:27;;;;;;;14.75;3.08;;;;;;;;;;4999874;28;20057;-71
2022/04/27 06:24:54;;;;;;;15.60;2.90;;;;;;;;;;5000900;28;20065;-71
2022/04/27 06:27:21;;;;;;;17.70;2.95;;;;;;;;;;5004632;28;20070;-71
2022/04/27 06:29:48;;;;;;;17.35;2.53;;;;;;;;;;4992968;28;20061;-72
2022/04/27 06:32:16;;;;;;;17.33;2.78;;;;;;;;;;5002571;28;20041;-73
2022/04/27 06:34:43;;;;;;;15.50;3.28;;;;;;;;;;5001745;28;20056;-73
2022/04/27 06:37:11;;;;;;;24.45;3.65;;;;;;;;;;4993612;28;20578;-73
2022/04/27 06:39:40;;;;;;;15.10;2.20;;;;;;;;;;4999265;28;20104;-73
2022/04/27 06:42:08;;;;;;;21.65;2.75;;;;;;;;;;4999251;28;20050;-73
2022/04/27 06:44:35;;;;;;;11.55;2.60;;;;;;;;;;4997112;28;20184;-73
2022/04/27 06:47:03;;;;;;;11.23;2.38;;;;;;;;;;4998225;28;20149;-71
2022/04/27 06:49:30;;;;;;;14.77;2.30;;;;;;;;;;4998445;28;20137;-71
2022/04/27 06:51:58;;;;;;;14.32;2.60;;;;;;;;;;4994848;28;20054;-71
2022/04/27 06:54:26;;;;;;;17.25;2.95;;;;;;;;;;4995855;28;20057;-71
2022/04/27 06:56:53;;;;;;;15.45;2.90;;;;;;;;;;4992624;28;20049;-72
2022/04/27 06:59:21;;;;;;;18.55;2.70;;;;;;;;;;4993849;28;20057;-71
2022/04/27 07:01:48;;;;;;;15.07;2.97;;;;;;;;;;4994758;28;20050;-72
2022/04/27 07:04:15;;;;;;;15.70;2.65;;;;;;;;;;4995135;28;20062;-71
2022/04/27 07:06:42;;;;;;;13.50;2.17;;;;;;;;;;4996726;28;20058;-71
2022/04/27 07:09:11;;;;;;;19.42;2.83;;;;;;;;;;4999837;28;20104;-71
2022/04/27 07:11:40;;;;;;;15.25;2.15;;;;;;;;;;4992879;28;20050;-71
2022/04/27 07:14:16;;;;;;;16.38;2.38;;;;;;;;;;4992526;28;20076;-72
2022/04/27 07:16:43;;;;;;;14.25;2.75;;;;;;;;;;4992563;28;20057;-71
2022/04/27 07:19:11;;;;;;;18.10;3.17;;;;;;;;;;4993412;28;20133;-72
2022/04/27 07:21:38;;;;;;;14.18;3.13;;;;;;;;;;4991298;28;20068;-74
2022/04/27 07:24:08;;;;;;;15.32;2.33;;;;;;;;;;5010839;28;20169;-74
2022/04/27 07:26:35;;;;;;;11.88;2.40;;;;;;;;;;4991334;28;20623;-73
2022/04/27 07:29:04;;;;;;;14.02;2.35;;;;;;;;;;4993768;28;20046;-74
2022/04/27 07:31:32;;;;;;;11.18;2.53;;;;;;;;;;4998812;28;20056;-73
2022/04/27 07:33:59;;;;;;;12.90;2.28;;;;;;;;;;4996433;28;20217;-72
2022/04/27 07:36:26;;;;;;;18.42;3.35;;;;;;;;;;5007642;28;20053;-70
2022/04/27 07:38:55;;;;;;;18.92;3.60;;;;;;;;;;4998714;28;20053;-70
2022/04/27 07:41:22;;;;;;;13.32;3.20;;;;;;;;;;5000941;28;20160;-70
2022/04/27 07:43:52;;;;;;;12.55;2.28;;;;;;;;;;5003426;28;20049;-70
2022/04/27 07:46:21;;;;;;;13.68;2.10;;;;;;;;;;5004294;28;20061;-70
2022/04/27 07:48:48;;;;;;;16.80;2.42;;;;;;;;;;4992763;28;20054;-70
2022/04/27 07:51:15;;;;;;;17.98;3.22;;;;;;;;;;5008654;28;20132;-70
2022/04/27 07:53:43;;;;;;;14.68;2.50;;;;;;;;;;5002334;28;20050;-70
2022/04/27 07:56:10;;;;;;;12.85;2.38;;;;;;;;;;4996779;28;20058;-70
2022/04/27 07:58:38;;;;;;;15.35;2.65;;;;;;;;;;4998461;28;20500;-69
2022/04/27 08:01:06;;;;;;;14.52;2.45;;;;;;;;;;5000572;28;20049;-69
2022/04/27 08:03:34;;;;;;;13.55;2.72;;;;;;;;;;4996687;28;20085;-69
2022/04/27 08:06:03;;;;;;;12.02;2.15;;;;;;;;;;4997979;28;20062;-69
2022/04/27 08:08:30;;;;;;;13.27;2.90;;;;;;;;;;4997131;28;20081;-69
2022/04/27 08:10:57;;;;;;;12.20;2.85;;;;;;;;;;4996328;28;20050;-69
2022/04/27 08:13:25;;;;;;;16.27;2.45;;;;;;;;;;4999410;28;20052;-69
2022/04/27 08:15:52;;;;;;;14.98;2.85;;;;;;;;;;4999754;28;20057;-70
2022/04/27 08:18:20;;;;;;;27.70;3.05;;;;;;;;;;5004609;28;20050;-70
2022/04/27 08:23:34;;;;;;;14.35;2.70;;;;;;;;;;5002574;28;20062;-71
2022/04/27 08:26:02;;;;;;;12.88;2.25;;;;;;;;;;5008004;28;20119;-70
2022/04/27 08:28:30;;;;;;;11.07;2.63;;;;;;;;;;5001502;28;20497;-70
2022/04/27 08:30:58;;;;;;;17.83;2.40;;;;;;;;;;5004813;28;20053;-70
2022/04/27 08:33:25;;;;;;;10.02;1.85;;;;;;;;;;5005016;28;20157;-70
2022/04/27 08:35:57;;;;;;;11.88;2.30;;;;;;;;;;5004286;28;20136;-70
2022/04/27 08:38:24;;;;;;;12.82;2.58;;;;;;;;;;5003949;28;20056;-70
2022/04/27 08:40:51;;;;;;;10.57;2.67;;;;;;;;;;5001213;28;20061;-70
2022/04/27 08:43:19;;;;;;;15.77;2.00;;;;;;;;;;5002672;28;20076;-70
2022/04/27 08:45:46;;;;;;;15.38;2.63;;;;;;;;;;5002213;28;20121;-70
2022/04/27 08:48:14;;;;;;;11.02;3.00;;;;;;;;;;5005504;28;20503;-70
2022/04/27 08:50:42;;;;;;;13.07;1.98;;;;;;;;;;5005184;28;20322;-70
2022/04/27 08:53:11;;;;;;;13.68;2.45;;;;;;;;;;5005337;28;20054;-70
2022/04/27 08:55:39;;;;;;;13.75;2.65;;;;;;;;;;5005638;28;20156;-71
2022/04/27 08:58:09;;;;;;;9.30;1.70;;;;;;;;;;5005155;28;20054;-70
2022/04/27 09:00:37;;;;;;;12.80;2.17;;;;;;;;;;5004683;28;20126;-71
2022/04/27 09:03:23;;;;;;;12.88;2.42;;;;;;;;;;5005672;28;20068;-70
2022/04/27 09:05:51;;;;;;;14.52;2.90;;;;;;;;;;5004577;28;20100;-70
2022/04/27 09:08:19;;;;;;;14.02;2.30;;;;;;;;;;5005550;28;20447;-70
2022/04/27 09:10:47;;;;;;;14.02;1.98;;;;;;;;;;5020032;28;20043;-70
2022/04/27 09:13:14;;;;;;;13.20;2.25;;;;;;;;;;5005271;28;20069;-70
2022/04/27 09:15:42;;;;;;;15.57;2.13;;;;;;;;;;5006027;28;20046;-70
2022/04/27 09:21:03;;;;;;;14.15;2.97;;;;;;;;;;4997892;28;20068;-70
2022/04/27 09:23:37;;;;;;;14.60;2.75;;;;;;;;;;5004244;28;20496;-71
2022/04/27 09:26:17;;;;;;;14.90;2.55;;;;;;;;;;5004258;28;20424;-70
2022/04/27 09:28:48;;;;;;;13.10;2.50;;;;;;;;;;5004640;28;20065;-70
2022/04/27 09:31:26;;;;;;;10.73;2.30;;;;;;;;;;5004275;28;20093;-70
2022/04/27 09:33:58;;;;;;;13.90;2.90;;;;;;;;;;5004534;28;20058;-70
2022/04/27 09:36:26;;;;;;;10.80;2.33;;;;;;;;;;5002895;28;20770;-70
2022/04/27 09:38:55;;;;;;;14.63;2.85;;;;;;;;;;5004648;28;20068;-71
2022/04/27 09:41:39;;;;;;;10.57;2.45;;;;;;;;;;5003949;28;20054;-70
2022/04/27 09:44:07;;;;;;;11.63;2.10;;;;;;;;;;4997773;28;20557;-70
2022/04/27 09:46:40;;;;;;;11.68;2.22;;;;;;;;;;5004704;28;20116;-70
2022/04/27 09:49:11;;;;;;;12.35;2.22;;;;;;;;;;5009259;28;20455;-70
2022/04/27 09:51:39;;;;;;;10.82;2.20;;;;;;;;;;5007876;28;20396;-70
2022/04/27 09:54:08;;;;;;;14.25;2.20;;;;;;;;;;5007913;28;20058;-70
2022/04/27 09:56:37;;;;;;;10.05;2.08;;;;;;;;;;5007868;28;20149;-70
2022/04/27 09:59:06;;;;;;;10.23;2.10;;;;;;;;;;5009301;28;20081;-70
2022/04/27 10:01:35;;;;;;;15.00;2.70;;;;;;;;;;5003248;28;20489;-70
2022/04/27 10:04:04;;;;;;;8.70;2.22;;;;;;;;;;5001740;28;20579;-70
2022/04/27 10:06:32;;;;;;;12.73;2.35;;;;;;;;;;5008641;28;20046;-70
2022/04/27 10:09:00;;;;;;;13.88;1.98;;;;;;;;;;5007368;28;20576;-70
2022/04/27 10:11:31;;;;;;;16.50;2.28;;;;;;;;;;5008744;28;20068;-70
2022/04/27 10:13:58;;;;;;;15.30;2.45;;;;;;;;;;5006814;28;20053;-70
2022/04/27 10:16:26;;;;;;;11.93;2.40;;;;;;;;;;5011672;28;20111;-70
2022/04/27 10:18:53;;;;;;;10.80;2.60;;;;;;;;;;5004786;28;20054;-71
2022/04/27 10:21:39;;;;;;;12.73;2.35;;;;;;;;;;5003875;28;20054;-70
2022/04/27 10:24:06;;;;;;;11.70;2.33;;;;;;;;;;5008591;28;20058;-70
2022/04/27 10:26:35;;;;;;;10.48;2.60;;;;;;;;;;5007535;28;20042;-70
2022/04/27 10:29:04;;;;;;;14.18;2.00;;;;;;;;;;5006871;28;20096;-70
2022/04/27 10:31:50;;;;;;;11.38;2.22;;;;;;;;;;5006614;28;20054;-70
2022/04/27 10:34:19;;;;;;;11.00;2.25;;;;;;;;;;5006251;28;20060;-70
2022/04/27 10:36:48;;;;;;;11.93;1.88;;;;;;;;;;5005973;28;20046;-70
2022/04/27 10:39:20;;;;;;;11.95;2.10;;;;;;;;;;5006375;28;20504;-71
2022/04/27 10:42:11;;;;;;;10.82;2.17;;;;;;;;;;5004729;28;20140;-70
2022/04/27 10:44:58;;;;;;;8.52;1.88;;;;;;;;;;5003640;28;20056;-70
2022/04/27 10:47:35;;;;;;;7.85;1.92;;;;;;;;;;5004164;28;20132;-70
2022/04/27 10:50:18;;;;;;;13.95;2.45;;;;;;;;;;5007828;28;20131;-70
2022/04/27 10:52:50;;;;;;;8.02;1.90;;;;;;;;;;5005068;28;20052;-70
2022/04/27 10:55:33;;;;;;;12.27;2.25;;;;;;;;;;5006455;28;20100;-70
2022/04/27 10:58:12;;;;;;;10.98;1.88;;;;;;;;;;5006895;28;20389;-71
2022/04/27 11:01:15;;;;;;;9.73;2.10;;;;;;;;;;5004940;28;20060;-70
2022/04/27 11:03:43;;;;;;;10.25;2.08;;;;;;;;;;5006323;28;20595;-70
2022/04/27 11:06:11;;;;;;;7.85;1.83;;;;;;;;;;5003024;28;20053;-70
2022/04/27 11:08:44;;;;;;;9.95;1.95;;;;;;;;;;5006979;28;20046;-70
2022/04/27 11:11:12;;;;;;;6.32;1.70;;;;;;;;;;5007133;28;20056;-70
2022/04/27 11:13:39;;;;;;;9.50;2.00;;;;;;;;;;5008206;28;20060;-70
2022/04/27 11:16:10;;;;;;;10.20;1.80;;;;;;;;;;5009113;28;20089;-70
2022/04/27 11:18:52;;;;;;;11.90;2.47;;;;;;;;;;5004799;28;20054;-70
2022/04/27 11:21:21;;;;;;;13.05;2.55;;;;;;;;;;5005555;28;20049;-70
2022/04/27 11:23:48;;;;;;;11.25;2.03;;;;;;;;;;5004081;28;20452;-70
2022/04/27 11:26:16;;;;;;;10.30;2.03;;;;;;;;;;5003427;28;20104;-70
2022/04/27 11:28:43;;;;;;;5.13;1.58;;;;;;;;;;5004760;28;20057;-70
2022/04/27 11:31:11;;;;;;;8.65;1.88;;;;;;;;;;5004156;28;20053;-70
2022/04/27 11:33:40;;;;;;;8.95;1.80;;;;;;;;;;5003490;28;20054;-69
2022/04/27 11:36:07;;;;;;;6.35;1.67;;;;;;;;;;5002105;28;20050;-70
2022/04/27 11:38:37;;;;;;;10.90;2.08;;;;;;;;;;5005184;28;20469;-70
2022/04/27 11:41:04;;;;;;;6.53;1.63;;;;;;;;;;4999417;28;20050;-70
2022/04/27 11:43:32;;;;;;;8.98;1.85;;;;;;;;;;4995401;28;20062;-70
2022/04/27 11:46:00;;;;;;;9.05;1.92;;;;;;;;;;5003616;28;20148;-70
2022/04/27 11:48:30;;;;;;;6.63;1.67;;;;;;;;;;5000514;28;20054;-70
2022/04/27 11:50:59;;;;;;;7.80;2.08;;;;;;;;;;5002675;28;20041;-70
2022/04/27 11:53:27;;;;;;;7.20;1.77;;;;;;;;;;4998094;28;20054;-70
2022/04/27 11:55:57;;;;;;;7.63;1.65;;;;;;;;;;5003570;28;20064;-70
2022/04/27 11:58:25;;;;;;;10.93;1.80;;;;;;;;;;5001635;28;20062;-70
2022/04/27 12:00:56;;;;;;;11.60;2.00;;;;;;;;;;5003344;28;20053;-70
2022/04/27 12:03:24;;;;;;;8.27;1.98;;;;;;;;;;5003617;28;20065;-70
2022/04/27 12:05:52;;;;;;;9.57;1.83;;;;;;;;;;5001677;28;20069;-70
2022/04/27 12:08:20;;;;;;;5.45;1.77;;;;;;;;;;5002024;28;20049;-70
2022/04/27 12:10:49;;;;;;;8.45;1.63;;;;;;;;;;5002380;28;20053;-71
2022/04/27 12:13:18;;;;;;;7.40;1.70;;;;;;;;;;5000359;28;20563;-70
2022/04/27 12:15:48;;;;;;;8.93;1.83;;;;;;;;;;4999906;28;20116;-70
2022/04/27 12:18:16;;;;;;;6.40;1.63;;;;;;;;;;5001445;28;20140;-70
2022/04/27 12:20:44;;;;;;;8.85;1.88;;;;;;;;;;4999763;28;20133;-70
2022/04/27 12:23:11;;;;;;;9.38;2.00;;;;;;;;;;5001695;28;20066;-70
2022/04/27 12:25:40;;;;;;;7.88;1.98;;;;;;;;;;5003235;28;20133;-70
2022/04/27 12:28:09;;;;;;;8.60;2.10;;;;;;;;;;4996834;28;20149;-70
2022/04/27 12:30:49;;;;;;;6.45;1.90;;;;;;;;;;4999532;28;20061;-71
2022/04/27 12:33:16;;;;;;;10.68;1.83;;;;;;;;;;5001399;28;20128;-70
2022/04/27 12:38:29;;;;;;;8.27;1.90;;;;;;;;;;5005233;28;20107;-70
2022/04/27 12:40:58;;;;;;;9.00;2.03;;;;;;;;;;5000671;28;20065;-70
2022/04/27 12:43:25;;;;;;;10.60;1.83;;;;;;;;;;4998086;28;20492;-70
2022/04/27 12:46:06;;;;;;;8.55;1.98;;;;;;;;;;4999839;28;20132;-70
2022/04/27 12:48:35;;;;;;;8.20;1.92;;;;;;;;;;4999212;28;20061;-70
2022/04/27 12:51:03;;;;;;;6.93;1.70;;;;;;;;;;4998470;28;20049;-70
2022/04/27 12:53:30;;;;;;;7.32;1.83;;;;;;;;;;5000132;28;20129;-70
2022/04/27 12:56:01;;;;;;;8.10;1.60;;;;;;;;;;5002906;28;20050;-70
2022/04/27 12:58:29;;;;;;;7.22;2.08;;;;;;;;;;4998715;28;20058;-70
2022/04/27 13:00:57;;;;;;;10.02;2.00;;;;;;;;;;5002472;28;20053;-70
2022/04/27 13:03:26;;;;;;;6.40;1.67;;;;;;;;;;5004448;28;20054;-70
2022/04/27 13:05:53;;;;;;;7.30;1.98;;;;;;;;;;4994688;28;20070;-70
2022/04/27 13:08:21;;;;;;;7.20;1.70;;;;;;;;;;5003149;28;20077;-70
2022/04/27 13:13:34;;;;;;;6.18;1.50;;;;;;;;;;5002910;28;20057;-70
2022/04/27 13:16:01;;;;;;;6.40;1.73;;;;;;;;;;5001672;28;20049;-70
2022/04/27 13:18:29;;;;;;;8.70;2.00;;;;;;;;;;4998077;28;20123;-71
2022/04/27 13:20:57;;;;;;;8.20;2.08;;;;;;;;;;4999320;28;20500;-70
2022/04/27 13:23:24;;;;;;;9.90;2.28;;;;;;;;;;5001412;28;20057;-70
2022/04/27 13:25:52;;;;;;;13.38;2.20;;;;;;;;;;4998765;28;20058;-69
2022/04/27 13:28:22;;;;;;;9.80;2.17;;;;;;;;;;4995791;28;20049;-69
2022/04/27 13:30:49;;;;;;;10.60;2.47;;;;;;;;;;5000414;28;20050;-70
2022/04/27 13:33:16;;;;;;;11.45;2.08;;;;;;;;;;4998881;28;20065;-70
2022/04/27 13:35:45;;;;;;;10.70;2.70;;;;;;;;;;4999488;28;20066;-70
2022/04/27 13:38:13;;;;;;;8.27;2.25;;;;;;;;;;5001431;28;20065;-70
2022/04/27 13:40:40;;;;;;;9.80;1.95;;;;;;;;;;5002962;28;20045;-70
2022/04/27 13:43:08;;;;;;;9.75;2.35;;;;;;;;;;5001323;28;20444;-70
2022/04/27 13:45:35;;;;;;;8.95;2.30;;;;;;;;;;5000761;28;20081;-70
2022/04/27 13:48:02;;;;;;;11.00;2.33;;;;;;;;;;5000603;28;20054;-70
2022/04/27 13:50:30;;;;;;;11.35;1.90;;;;;;;;;;5001892;28;20065;-70
2022/04/27 13:52:58;;;;;;;10.80;2.72;;;;;;;;;;5000157;28;20416;-70
2022/04/27 13:55:26;;;;;;;7.15;2.15;;;;;;;;;;4998652;28;20053;-70
2022/04/27 13:57:55;;;;;;;9.55;1.90;;;;;;;;;;5000433;28;20061;-70
2022/04/27 14:00:25;;;;;;;8.75;2.08;;;;;;;;;;5001052;28;20068;-71
2022/04/27 14:02:52;;;;;;;7.45;2.40;;;;;;;;;;4999342;28;20061;-70
2022/04/27 14:05:20;;;;;;;9.27;2.08;;;;;;;;;;4997740;28;20061;-70
2022/04/27 14:07:47;;;;;;;9.07;2.00;;;;;;;;;;4998296;28;20420;-70
2022/04/27 14:10:16;;;;;;;8.77;1.77;;;;;;;;;;4997957;28;20145;-70
2022/04/27 14:15:29;;;;;;;9.05;2.00;;;;;;;;;;5004038;28;20046;-70
2022/04/27 14:18:14;;;;;;;7.18;1.90;;;;;;;;;;4998536;28;20057;-70
2022/04/27 14:20:42;;;;;;;10.45;2.25;;;;;;;;;;5000826;28;20049;-70
2022/04/27 14:23:10;;;;;;;11.90;2.38;;;;;;;;;;4999649;28;20058;-70
2022/04/27 14:25:39;;;;;;;7.18;2.13;;;;;;;;;;5006442;28;20175;-70
2022/04/27 14:28:06;;;;;;;11.43;2.60;;;;;;;;;;4999135;28;20053;-71
2022/04/27 14:30:34;;;;;;;7.30;2.30;;;;;;;;;;5001449;28;20515;-70
2022/04/27 14:33:01;;;;;;;12.70;2.60;;;;;;;;;;5007279;28;20064;-70
2022/04/27 14:35:28;;;;;;;13.00;2.20;;;;;;;;;;5006328;28;20088;-70
2022/04/27 14:37:56;;;;;;;10.65;1.88;;;;;;;;;;5004184;28;20061;-70
2022/04/27 14:40:23;;;;;;;9.38;2.40;;;;;;;;;;5008967;28;20046;-70
2022/04/27 14:42:52;;;;;;;9.45;2.20;;;;;;;;;;5008143;28;20551;-70
2022/04/27 14:45:19;;;;;;;9.60;2.25;;;;;;;;;;5007510;28;20133;-70
2022/04/27 14:47:47;;;;;;;8.93;2.50;;;;;;;;;;5004903;28;20053;-70
2022/04/27 14:50:14;;;;;;;10.35;2.42;;;;;;;;;;5005062;28;20054;-70
2022/04/27 14:52:41;;;;;;;8.88;1.88;;;;;;;;;;5008207;28;20516;-70
2022/04/27 14:55:09;;;;;;;13.10;2.55;;;;;;;;;;5004067;28;20100;-70
2022/04/27 14:57:37;;;;;;;8.30;2.05;;;;;;;;;;5005191;28;20458;-70
2022/04/27 15:00:06;;;;;;;9.65;2.10;;;;;;;;;;5004956;28;20116;-71
2022/04/27 15:02:34;;;;;;;11.25;2.30;;;;;;;;;;5005266;28;20046;-70
2022/04/27 15:05:01;;;;;;;10.05;2.08;;;;;;;;;;5005728;28;20054;-70
2022/04/27 15:07:28;;;;;;;7.93;2.00;;;;;;;;;;5003245;28;20042;-70
2022/04/27 15:09:56;;;;;;;9.20;2.13;;;;;;;;;;5007261;28;20535;-70
2022/04/27 15:12:23;;;;;;;12.90;2.40;;;;;;;;;;5003808;28;20104;-70